Time;durP1;ratioP1;P1;durP2;ratioP2;P2;SDS_P1;SDS_P2;PMS_P1;PMS_P2;Temp;Humidity;BMP_temperature;BMP_pressure;BME280_temperature;BME280_humidity;BME280_pressure;Samples;Min_cycle;Max_cycle;Signal;HPM_P1;HPM_P2
2023/03/16 00:00:20;;;;;;;5.00;4.15;;;;;;;5.42;nan;101633.78;4988109;28;20042;-61
2023/03/16 00:02:45;;;;;;;7.95;4.88;;;;;;;5.46;nan;101618.97;4977425;28;20030;-61
2023/03/16 00:05:12;;;;;;;8.82;4.90;;;;;;;5.05;nan;101549.31;4990423;28;20446;-59
2023/03/16 00:07:38;;;;;;;5.78;4.57;;;;;;;5.30;nan;101586.78;4990889;28;20408;-60
2023/03/16 00:10:04;;;;;;;6.85;4.10;;;;;;;5.50;nan;101629.44;4976851;28;20058;-60
2023/03/16 00:12:33;;;;;;;6.75;4.38;;;;;;;5.51;nan;101625.09;4988441;28;20073;-60
2023/03/16 00:14:59;;;;;;;6.07;4.70;;;;;;;5.13;nan;101548.47;4991368;28;20374;-60
2023/03/16 00:17:25;;;;;;;6.45;4.63;;;;;;;5.52;nan;101622.47;4991383;28;20054;-62
2023/03/16 00:19:56;;;;;;;7.65;4.53;;;;;;;5.13;nan;101554.56;4992399;28;20116;-60
2023/03/16 00:22:26;;;;;;;6.50;4.60;;;;;;;5.02;nan;101531.06;4992360;28;20483;-60
2023/03/16 00:24:52;;;;;;;5.78;4.70;;;;;;;5.51;nan;101612.03;4992142;28;20397;-60
2023/03/16 00:27:18;;;;;;;6.68;4.88;;;;;;;5.51;nan;101622.47;4992528;28;20042;-61
2023/03/16 00:29:47;;;;;;;5.65;5.05;;;;;;;5.18;nan;101552.81;4973255;28;20279;-59
2023/03/16 00:32:26;;;;;;;6.25;4.95;;;;;;;5.52;nan;101598.97;4986122;28;20061;-60
2023/03/16 00:34:51;;;;;;;7.63;4.95;;;;;;;5.52;nan;101587.63;4992380;28;20462;-60
2023/03/16 00:37:18;;;;;;;9.07;5.00;;;;;;;5.51;nan;101580.69;4992266;28;20161;-60
2023/03/16 00:39:44;;;;;;;5.95;5.35;;;;;;;5.58;nan;101591.13;4991865;28;20085;-60
2023/03/16 00:42:11;;;;;;;6.65;4.82;;;;;;;5.62;nan;101595.50;4992182;28;20030;-61
2023/03/16 00:44:37;;;;;;;7.50;4.90;;;;;;;5.62;nan;101574.59;4990867;28;20042;-60
2023/03/16 00:47:04;;;;;;;7.13;4.63;;;;;;;5.69;nan;101586.75;5006207;28;20051;-59
2023/03/16 00:49:33;;;;;;;6.78;4.75;;;;;;;5.65;nan;101579.81;4991723;28;20088;-62
2023/03/16 00:52:02;;;;;;;6.93;5.20;;;;;;;5.64;nan;101570.22;5006594;28;20034;-59
2023/03/16 00:54:28;;;;;;;8.50;5.13;;;;;;;5.64;nan;101569.34;4990850;28;20030;-62
2023/03/16 00:56:54;;;;;;;6.93;5.13;;;;;;;5.25;nan;101504.13;4990649;28;20453;-60
2023/03/16 00:59:20;;;;;;;7.88;4.55;;;;;;;5.61;nan;101561.53;4991390;28;20472;-60
2023/03/16 01:01:46;;;;;;;5.70;4.47;;;;;;;5.63;nan;101550.19;5007017;28;20129;-60
2023/03/16 01:04:12;;;;;;;6.15;4.65;;;;;;;5.63;nan;101554.56;4991995;28;20038;-60
2023/03/16 01:06:38;;;;;;;7.03;5.13;;;;;;;5.67;nan;101564.13;4973399;28;20552;-60
2023/03/16 01:09:04;;;;;;;7.55;5.68;;;;;;;5.30;nan;101490.19;4987429;28;20038;-60
2023/03/16 01:11:32;;;;;;;6.75;5.10;;;;;;;5.58;nan;101535.41;4972760;28;20030;-60
2023/03/16 01:13:58;;;;;;;8.23;5.72;;;;;;;5.58;nan;101530.19;4972817;28;20386;-61
2023/03/16 01:16:23;;;;;;;6.28;5.20;;;;;;;5.51;nan;101526.72;4970785;28;20038;-60
2023/03/16 01:18:49;;;;;;;10.70;5.25;;;;;;;5.67;nan;101546.72;4972541;28;20034;-60
2023/03/16 01:21:14;;;;;;;8.48;4.70;;;;;;;5.64;nan;101533.66;4993268;28;20137;-61
2023/03/16 01:23:40;;;;;;;5.97;5.35;;;;;;;5.35;nan;101475.38;4995806;28;20038;-61
2023/03/16 01:26:07;;;;;;;7.65;5.38;;;;;;;5.74;nan;101534.53;4995289;28;20030;-61
2023/03/16 01:28:33;;;;;;;9.00;5.30;;;;;;;5.76;nan;101542.34;4995706;28;20034;-61
2023/03/16 01:31:07;;;;;;;8.13;5.40;;;;;;;5.67;nan;101515.38;4994253;28;20053;-61
2023/03/16 01:33:33;;;;;;;8.95;4.85;;;;;;;5.62;nan;101509.31;4995136;28;20035;-60
2023/03/16 01:36:08;;;;;;;9.40;5.15;;;;;;;5.72;nan;101519.75;4995101;28;20122;-61
2023/03/16 01:38:33;;;;;;;10.35;5.53;;;;;;;5.70;nan;101527.56;4994436;28;20038;-60
2023/03/16 01:40:59;;;;;;;8.15;6.22;;;;;;;5.60;nan;101494.50;4995636;28;21371;-59
2023/03/16 01:43:27;;;;;;;10.88;5.75;;;;;;;5.69;nan;101508.41;5009529;28;20497;-62
2023/03/16 01:45:52;;;;;;;6.47;5.57;;;;;;;5.68;nan;101508.41;4993667;28;20192;-63
2023/03/16 01:48:20;;;;;;;8.65;5.28;;;;;;;5.65;nan;101511.91;4992965;28;20038;-60
2023/03/16 01:50:46;;;;;;;9.18;5.97;;;;;;;5.67;nan;101496.22;4994558;28;20046;-60
2023/03/16 01:53:11;;;;;;;9.20;5.85;;;;;;;5.61;nan;101481.44;5010218;28;20034;-62
2023/03/16 01:55:37;;;;;;;10.15;5.90;;;;;;;5.60;nan;101489.28;4993977;28;20042;-61
2023/03/16 01:58:02;;;;;;;10.45;5.60;;;;;;;5.59;nan;101488.41;4994267;28;20042;-61
2023/03/16 02:00:31;;;;;;;8.55;5.75;;;;;;;5.64;nan;101481.44;5009730;28;20038;-63
2023/03/16 02:03:05;;;;;;;7.22;5.63;;;;;;;5.53;nan;101482.31;4993694;28;20064;-62
2023/03/16 02:05:42;;;;;;;8.20;5.88;;;;;;;5.38;nan;101454.50;4993702;28;20066;-63
2023/03/16 02:08:08;;;;;;;7.07;5.68;;;;;;;5.24;nan;101429.28;5009859;28;20058;-60
2023/03/16 02:10:34;;;;;;;9.27;5.43;;;;;;;5.64;nan;101483.16;5008527;28;20471;-60
2023/03/16 02:13:00;;;;;;;6.95;5.53;;;;;;;5.62;nan;101477.09;5009842;28;20157;-60
2023/03/16 02:15:26;;;;;;;6.78;5.20;;;;;;;5.55;nan;101454.47;4994566;28;20449;-61
2023/03/16 02:17:52;;;;;;;11.02;6.07;;;;;;;5.64;nan;101480.56;4994713;28;20104;-59
2023/03/16 02:20:27;;;;;;;8.93;5.22;;;;;;;5.69;nan;101466.59;4993474;28;20061;-63
2023/03/16 02:22:53;;;;;;;6.70;5.47;;;;;;;5.59;nan;101437.91;5009702;28;20042;-61
2023/03/16 02:25:21;;;;;;;5.60;4.90;;;;;;;5.55;nan;101433.56;4993650;28;20080;-63
2023/03/16 02:27:59;;;;;;;7.05;5.90;;;;;;;5.65;nan;101456.19;4993203;28;20081;-60
2023/03/16 02:30:25;;;;;;;7.40;6.13;;;;;;;5.27;nan;101379.69;4993201;28;20038;-60
2023/03/16 02:32:52;;;;;;;10.25;6.55;;;;;;;5.61;nan;101438.78;4993296;28;20117;-61
2023/03/16 02:35:18;;;;;;;7.85;5.78;;;;;;;5.17;nan;101368.38;5009496;28;20096;-62
2023/03/16 02:37:43;;;;;;;8.30;6.65;;;;;;;5.48;nan;101431.88;4993211;28;20053;-61
2023/03/16 02:40:28;;;;;;;6.45;5.13;;;;;;;5.60;nan;101435.28;4992852;28;20034;-61
2023/03/16 02:43:03;;;;;;;8.52;6.22;;;;;;;5.18;nan;101364.03;4994097;28;20041;-61
2023/03/16 02:45:36;;;;;;;7.13;5.15;;;;;;;5.63;nan;101442.28;4993122;28;20037;-62
2023/03/16 02:48:05;;;;;;;6.40;5.75;;;;;;;5.61;nan;101436.16;4992620;28;20084;-61
2023/03/16 02:50:31;;;;;;;8.25;6.43;;;;;;;5.20;nan;101360.56;4994055;28;20073;-61
2023/03/16 02:52:56;;;;;;;9.80;6.40;;;;;;;5.63;nan;101432.66;4993845;28;20572;-61
2023/03/16 02:55:21;;;;;;;9.32;6.30;;;;;;;5.60;nan;101431.84;4994207;28;20042;-60
2023/03/16 02:57:47;;;;;;;9.57;6.20;;;;;;;5.50;nan;101425.75;4993644;28;20081;-60
2023/03/16 03:00:17;;;;;;;8.90;5.80;;;;;;;5.13;nan;101350.16;5008205;28;20053;-61
2023/03/16 03:02:44;;;;;;;10.50;6.50;;;;;;;5.46;nan;101418.78;4993790;28;20030;-60
2023/03/16 03:05:10;;;;;;;8.25;6.03;;;;;;;5.39;nan;101409.25;4992350;28;20038;-60
2023/03/16 03:07:36;;;;;;;10.75;6.35;;;;;;;5.52;nan;101421.38;4993677;28;20441;-60
2023/03/16 03:10:04;;;;;;;10.05;6.60;;;;;;;5.11;nan;101348.41;4993920;28;20034;-64
2023/03/16 03:12:31;;;;;;;6.93;6.22;;;;;;;5.51;nan;101411.84;4993529;28;20116;-60
2023/03/16 03:14:56;;;;;;;7.25;6.10;;;;;;;5.56;nan;101407.47;5008009;28;20034;-62
2023/03/16 03:17:29;;;;;;;9.38;6.90;;;;;;;5.58;nan;101410.94;4993583;28;20034;-62
2023/03/16 03:20:12;;;;;;;10.05;6.55;;;;;;;5.50;nan;101390.94;4993260;28;20034;-60
2023/03/16 03:22:38;;;;;;;10.43;7.28;;;;;;;5.53;nan;101406.59;4993343;28;20031;-62
2023/03/16 03:25:04;;;;;;;14.27;7.00;;;;;;;5.54;nan;101404.00;5008384;28;20042;-61
2023/03/16 03:27:29;;;;;;;9.65;6.60;;;;;;;5.24;nan;101345.75;4991992;28;20129;-61
2023/03/16 03:29:55;;;;;;;8.18;6.00;;;;;;;5.10;nan;101325.81;4993331;28;20050;-62
2023/03/16 03:32:20;;;;;;;11.68;6.82;;;;;;;5.49;nan;101384.84;4992312;28;20073;-61
2023/03/16 03:34:46;;;;;;;8.85;6.70;;;;;;;5.14;nan;101318.81;5008035;28;20045;-62
2023/03/16 03:37:11;;;;;;;8.82;6.35;;;;;;;5.55;nan;101390.03;5008214;28;20053;-62
2023/03/16 03:39:39;;;;;;;8.30;6.28;;;;;;;5.50;nan;101367.44;4991618;28;20030;-62
2023/03/16 03:42:05;;;;;;;8.15;6.85;;;;;;;5.57;nan;101382.22;4993148;28;20030;-62
2023/03/16 03:44:33;;;;;;;7.93;6.05;;;;;;;5.51;nan;101377.03;4992657;28;20165;-63
2023/03/16 03:46:59;;;;;;;7.47;6.22;;;;;;;5.57;nan;101374.41;4992165;28;20095;-62
2023/03/16 03:49:24;;;;;;;9.43;6.57;;;;;;;5.07;nan;101301.47;4992875;28;20061;-61
2023/03/16 03:51:50;;;;;;;10.73;6.80;;;;;;;5.54;nan;101380.50;4991557;28;20034;-62
2023/03/16 03:54:15;;;;;;;6.93;6.00;;;;;;;5.42;nan;101349.19;5007895;28;20462;-62
2023/03/16 03:56:40;;;;;;;7.47;5.78;;;;;;;5.19;nan;101306.66;4992665;28;20038;-61
2023/03/16 03:59:06;;;;;;;8.80;5.53;;;;;;;5.57;nan;101372.63;5007912;28;20038;-61
2023/03/16 04:01:31;;;;;;;10.20;6.45;;;;;;;5.11;nan;101293.59;5007667;28;20048;-63
2023/03/16 04:03:57;;;;;;;7.15;5.72;;;;;;;5.11;nan;101293.59;4974095;28;20037;-62
2023/03/16 04:06:22;;;;;;;6.90;5.50;;;;;;;5.39;nan;101343.13;5007762;28;20027;-63
2023/03/16 04:08:48;;;;;;;7.00;5.38;;;;;;;5.38;nan;101341.38;4992230;28;20027;-63
2023/03/16 04:11:13;;;;;;;8.43;6.10;;;;;;;5.05;nan;101285.78;4992464;28;20195;-65
2023/03/16 04:13:39;;;;;;;14.10;6.38;;;;;;;5.46;nan;101374.41;4992444;28;20069;-63
2023/03/16 04:16:04;;;;;;;6.68;5.97;;;;;;;5.52;nan;101357.84;4990822;28;20034;-61
2023/03/16 04:18:37;;;;;;;9.02;6.05;;;;;;;5.54;nan;101361.34;4992851;28;20027;-60
2023/03/16 04:21:06;;;;;;;8.77;6.05;;;;;;;5.53;nan;101357.84;4990895;28;20065;-63
2023/03/16 04:23:33;;;;;;;8.70;6.40;;;;;;;5.55;nan;101348.28;5007478;28;20034;-61
2023/03/16 04:25:58;;;;;;;9.82;6.30;;;;;;;5.55;nan;101352.63;5007322;28;20049;-62
2023/03/16 04:28:25;;;;;;;7.53;5.97;;;;;;;5.50;nan;101357.00;4992332;28;20030;-63
2023/03/16 04:30:53;;;;;;;10.52;6.38;;;;;;;5.13;nan;101271.88;4990944;28;20096;-63
2023/03/16 04:33:19;;;;;;;9.00;6.50;;;;;;;5.54;nan;101346.56;4991059;28;20050;-63
2023/03/16 04:35:44;;;;;;;10.02;6.47;;;;;;;5.55;nan;101344.78;4990304;28;20474;-61
2023/03/16 04:38:11;;;;;;;11.52;6.90;;;;;;;5.37;nan;101310.94;4990915;28;20899;-62
2023/03/16 04:40:37;;;;;;;7.07;5.65;;;;;;;5.51;nan;101341.34;5007189;28;20034;-62
2023/03/16 04:43:02;;;;;;;12.07;6.93;;;;;;;4.63;nan;101189.41;4992006;28;20271;-63
2023/03/16 04:45:28;;;;;;;8.80;6.35;;;;;;;5.49;nan;101330.00;4991689;28;20038;-61
2023/03/16 04:47:53;;;;;;;8.68;6.32;;;;;;;5.50;nan;101325.66;4992218;28;20509;-63
2023/03/16 04:50:18;;;;;;;10.15;6.13;;;;;;;5.41;nan;101326.56;4992024;28;20044;-60
2023/03/16 04:52:44;;;;;;;7.32;5.90;;;;;;;5.04;nan;101257.97;5006586;28;20038;-61
2023/03/16 04:55:09;;;;;;;8.93;6.28;;;;;;;5.37;nan;101311.78;4992530;28;20045;-62
2023/03/16 04:57:35;;;;;;;10.68;6.90;;;;;;;5.39;nan;101314.41;4996457;28;20130;-62
2023/03/16 05:00:00;;;;;;;7.75;5.93;;;;;;;5.41;nan;101313.50;4995686;28;20038;-61
2023/03/16 05:02:25;;;;;;;8.98;5.90;;;;;;;5.33;nan;101309.19;5011030;28;20057;-61
2023/03/16 05:04:51;;;;;;;7.35;5.45;;;;;;;5.32;nan;101299.63;4996093;28;20064;-62
2023/03/16 05:07:16;;;;;;;7.80;5.78;;;;;;;5.32;nan;101307.44;5010318;28;20405;-61
2023/03/16 05:09:41;;;;;;;7.22;4.93;;;;;;;5.33;nan;101294.41;4994322;28;20034;-61
2023/03/16 05:12:07;;;;;;;8.55;5.22;;;;;;;5.32;nan;101297.00;4995849;28;20035;-61
2023/03/16 05:14:34;;;;;;;9.18;5.32;;;;;;;5.26;nan;101294.41;4995685;28;20067;-61
2023/03/16 05:17:02;;;;;;;11.40;4.72;;;;;;;5.23;nan;101284.88;4995760;28;20105;-61
2023/03/16 05:19:28;;;;;;;8.00;4.20;;;;;;;5.28;nan;101296.19;4995618;28;20516;-61
2023/03/16 05:21:55;;;;;;;7.10;4.78;;;;;;;5.25;nan;101296.19;4995537;28;20034;-60
2023/03/16 05:24:22;;;;;;;8.07;5.20;;;;;;;4.98;nan;101250.19;4995761;28;20035;-61
2023/03/16 05:26:47;;;;;;;10.60;5.20;;;;;;;4.61;nan;101183.34;4994675;28;20117;-62
2023/03/16 05:29:12;;;;;;;8.18;4.55;;;;;;;5.11;nan;101267.50;4995246;28;20113;-62
2023/03/16 05:31:38;;;;;;;5.70;4.18;;;;;;;5.20;nan;101289.22;4995337;28;20041;-61
2023/03/16 05:34:03;;;;;;;9.27;5.05;;;;;;;4.77;nan;101213.72;4995323;28;20099;-60
2023/03/16 05:36:28;;;;;;;5.78;4.05;;;;;;;4.94;nan;101239.72;4995214;28;20042;-60
2023/03/16 05:38:54;;;;;;;7.28;4.78;;;;;;;5.15;nan;101286.63;4995178;28;20049;-61
2023/03/16 05:41:20;;;;;;;7.28;4.03;;;;;;;5.02;nan;101254.50;4994548;28;20038;-63
2023/03/16 05:43:46;;;;;;;5.82;4.20;;;;;;;4.74;nan;101198.06;5009987;28;20046;-61
2023/03/16 05:46:11;;;;;;;8.40;4.68;;;;;;;4.85;nan;101211.06;4995091;28;20053;-60
2023/03/16 05:48:36;;;;;;;5.15;4.05;;;;;;;5.21;nan;101270.97;4995314;28;20038;-61
2023/03/16 05:51:04;;;;;;;6.38;3.90;;;;;;;5.24;nan;101277.91;4993570;28;20057;-63
2023/03/16 05:53:30;;;;;;;8.18;4.10;;;;;;;5.25;nan;101266.59;5009771;28;20400;-60
2023/03/16 05:55:56;;;;;;;7.78;3.85;;;;;;;5.24;nan;101262.25;4994819;28;20034;-62
2023/03/16 05:58:21;;;;;;;5.18;3.67;;;;;;;5.04;nan;101229.28;4993957;28;20527;-63
2023/03/16 06:00:47;;;;;;;5.95;3.47;;;;;;;5.20;nan;101273.56;4994984;28;20117;-61
2023/03/16 06:03:12;;;;;;;6.68;3.53;;;;;;;4.87;nan;101210.22;4995146;28;20389;-62
2023/03/16 06:05:37;;;;;;;5.25;3.45;;;;;;;5.12;nan;101252.72;4994991;28;20061;-62
2023/03/16 06:08:03;;;;;;;8.30;4.32;;;;;;;4.90;nan;101201.50;4995051;28;20117;-61
2023/03/16 06:10:28;;;;;;;5.60;3.97;;;;;;;5.25;nan;101272.69;4994676;28;20037;-62
2023/03/16 06:12:54;;;;;;;6.35;3.97;;;;;;;5.28;nan;101262.25;4993654;28;20080;-62
2023/03/16 06:15:19;;;;;;;6.72;3.53;;;;;;;4.80;nan;101189.34;4994967;28;20074;-60
2023/03/16 06:17:44;;;;;;;8.75;3.95;;;;;;;5.25;nan;101266.59;5009748;28;20034;-60
2023/03/16 06:20:12;;;;;;;11.57;4.60;;;;;;;5.24;nan;101264.84;4994415;28;20385;-60
2023/03/16 06:22:38;;;;;;;5.80;3.80;;;;;;;4.86;nan;101195.44;4977014;28;20373;-61
2023/03/16 06:25:04;;;;;;;7.85;3.85;;;;;;;4.99;nan;101222.34;5009570;28;20120;-60
2023/03/16 06:27:30;;;;;;;8.48;4.57;;;;;;;5.26;nan;101263.09;5008806;28;20433;-61
2023/03/16 06:29:55;;;;;;;5.18;3.70;;;;;;;5.17;nan;101243.13;4994877;28;20045;-61
2023/03/16 06:32:21;;;;;;;7.00;4.28;;;;;;;4.99;nan;101206.69;4994701;28;20034;-62
2023/03/16 06:34:46;;;;;;;6.43;3.97;;;;;;;5.19;nan;101236.19;4994501;28;20034;-61
2023/03/16 06:37:12;;;;;;;12.15;4.53;;;;;;;5.24;nan;101244.84;4993475;28;20030;-63
2023/03/16 06:39:38;;;;;;;9.20;5.30;;;;;;;4.90;nan;101170.22;4994081;28;20030;-61
2023/03/16 06:42:04;;;;;;;6.07;4.45;;;;;;;4.94;nan;101174.53;4993359;28;20041;-61
2023/03/16 06:44:30;;;;;;;6.30;4.07;;;;;;;5.37;nan;101245.69;4989619;28;20120;-62
2023/03/16 06:46:55;;;;;;;10.00;4.32;;;;;;;5.42;nan;101241.28;4993139;28;20054;-61
2023/03/16 06:49:21;;;;;;;7.40;4.00;;;;;;;5.06;nan;101174.47;5009057;28;20112;-61
2023/03/16 06:51:46;;;;;;;6.30;4.22;;;;;;;5.33;nan;101221.31;4992636;28;20060;-61
2023/03/16 06:54:11;;;;;;;8.35;3.95;;;;;;;5.03;nan;101162.31;5009288;28;20514;-61
2023/03/16 06:56:37;;;;;;;7.03;3.53;;;;;;;5.15;nan;101171.81;4990947;28;20045;-63
2023/03/16 06:59:02;;;;;;;7.88;3.72;;;;;;;5.49;nan;101230.78;4992610;28;20041;-62
2023/03/16 07:01:28;;;;;;;8.82;4.20;;;;;;;5.50;nan;101242.09;4992376;28;20126;-62
2023/03/16 07:03:53;;;;;;;4.78;3.78;;;;;;;5.45;nan;101223.00;4991907;28;20427;-62
2023/03/16 07:06:19;;;;;;;8.60;4.72;;;;;;;5.51;nan;101222.97;4993026;28;20092;-62
2023/03/16 07:08:44;;;;;;;7.55;3.80;;;;;;;5.17;nan;101169.22;4992130;28;20398;-62
2023/03/16 07:11:10;;;;;;;5.63;3.90;;;;;;;5.18;nan;101160.50;5007852;28;20038;-62
2023/03/16 07:13:35;;;;;;;10.18;3.53;;;;;;;5.56;nan;101237.72;4992760;28;20053;-63
2023/03/16 07:16:01;;;;;;;6.35;4.05;;;;;;;5.59;nan;101229.00;4991483;28;20583;-62
2023/03/16 07:18:27;;;;;;;7.43;4.32;;;;;;;5.65;nan;101221.13;4990918;28;20104;-63
2023/03/16 07:20:53;;;;;;;7.70;4.25;;;;;;;5.66;nan;101215.06;4993487;28;20034;-62
2023/03/16 07:23:19;;;;;;;10.23;4.13;;;;;;;5.51;nan;101178.59;4991983;28;20489;-62
2023/03/16 07:25:44;;;;;;;4.30;3.80;;;;;;;5.59;nan;101174.16;4993124;28;20042;-62
2023/03/16 07:28:10;;;;;;;5.20;3.90;;;;;;;5.92;nan;101213.16;4993409;28;20038;-62
2023/03/16 07:30:36;;;;;;;6.03;3.22;;;;;;;5.63;nan;101170.66;4992455;28;20094;-62
2023/03/16 07:33:01;;;;;;;5.55;3.17;;;;;;;6.05;nan;101230.47;4991575;28;20041;-62
2023/03/16 07:35:26;;;;;;;8.13;3.65;;;;;;;6.07;nan;101223.47;4992781;28;20112;-62
2023/03/16 07:37:51;;;;;;;7.82;3.78;;;;;;;6.21;nan;101237.31;4992324;28;20051;-64
2023/03/16 07:40:17;;;;;;;7.70;3.75;;;;;;;6.32;nan;101241.56;4992494;28;20397;-64
2023/03/16 07:42:43;;;;;;;7.70;4.15;;;;;;;6.39;nan;101223.19;4992915;28;20034;-63
2023/03/16 07:45:09;;;;;;;4.95;3.28;;;;;;;6.31;nan;101217.16;4992622;28;20042;-64
2023/03/16 07:47:35;;;;;;;5.68;3.53;;;;;;;6.46;nan;101230.09;5007903;28;20060;-62
2023/03/16 07:50:00;;;;;;;5.75;4.00;;;;;;;6.40;nan;101229.28;4992906;28;20129;-63
2023/03/16 07:52:27;;;;;;;6.05;3.40;;;;;;;6.44;nan;101231.88;4991844;28;20041;-62
2023/03/16 07:54:53;;;;;;;8.68;3.60;;;;;;;6.44;nan;101234.50;5007189;28;20088;-61
2023/03/16 07:57:18;;;;;;;5.22;3.65;;;;;;;6.27;nan;101205.03;5007630;28;20047;-62
2023/03/16 07:59:44;;;;;;;6.43;4.00;;;;;;;6.58;nan;101247.44;4992438;28;20320;-63
2023/03/16 08:02:11;;;;;;;7.95;3.60;;;;;;;6.63;nan;101250.84;4992470;28;20176;-62
2023/03/16 08:04:37;;;;;;;5.13;2.92;;;;;;;6.63;nan;101224.69;4991190;28;20073;-64
2023/03/16 08:07:02;;;;;;;6.35;2.90;;;;;;;6.72;nan;101242.91;4992251;28;20210;-63
2023/03/16 08:09:27;;;;;;;5.55;3.25;;;;;;;6.83;nan;101248.06;4990468;28;20046;-63
2023/03/16 08:11:53;;;;;;;4.03;2.60;;;;;;;6.86;nan;101241.03;4992460;28;20034;-63
2023/03/16 08:14:18;;;;;;;4.78;2.42;;;;;;;6.94;nan;101243.56;4992658;28;20043;-64
2023/03/16 08:16:44;;;;;;;3.58;2.30;;;;;;;7.02;nan;101245.22;4992424;28;20046;-62
2023/03/16 08:19:10;;;;;;;9.75;2.75;;;;;;;7.01;nan;101242.59;4992279;28;20053;-64
2023/03/16 08:21:35;;;;;;;7.85;2.45;;;;;;;7.06;nan;101252.16;4992379;28;20037;-64
2023/03/16 08:24:01;;;;;;;5.40;2.53;;;;;;;7.00;nan;101256.59;4989942;28;20413;-63
2023/03/16 08:26:26;;;;;;;5.78;2.50;;;;;;;7.00;nan;101239.16;4991264;28;20054;-64
2023/03/16 08:28:52;;;;;;;6.35;3.05;;;;;;;6.99;nan;101234.78;4992314;28;20030;-64
2023/03/16 08:31:19;;;;;;;3.00;2.28;;;;;;;7.04;nan;101235.59;4981205;28;20031;-65
2023/03/16 08:33:46;;;;;;;8.07;2.95;;;;;;;7.05;nan;101229.47;4973000;28;20497;-64
2023/03/16 08:36:14;;;;;;;5.28;2.47;;;;;;;6.77;nan;101183.59;4972744;28;20045;-63
2023/03/16 08:38:40;;;;;;;4.43;2.40;;;;;;;7.11;nan;101221.56;4973194;28;20035;-63
2023/03/16 08:41:05;;;;;;;5.65;2.80;;;;;;;7.02;nan;101184.16;4999017;28;20034;-64
2023/03/16 08:43:31;;;;;;;5.50;2.50;;;;;;;7.01;nan;101157.09;4989710;28;20397;-64
2023/03/16 08:45:57;;;;;;;4.63;2.20;;;;;;;7.58;nan;101233.16;4991683;28;20065;-64
2023/03/16 08:48:23;;;;;;;5.88;2.72;;;;;;;7.68;nan;101216.41;4990149;28;20035;-64
2023/03/16 08:50:48;;;;;;;5.10;2.60;;;;;;;7.50;nan;101167.75;4972593;28;20093;-65
2023/03/16 08:53:14;;;;;;;3.92;2.22;;;;;;;7.97;nan;101232.56;4972478;28;20047;-62
2023/03/16 08:55:40;;;;;;;4.88;2.25;;;;;;;8.15;nan;101240.16;4972784;28;20051;-62
2023/03/16 08:58:07;;;;;;;2.78;2.28;;;;;;;8.18;nan;101213.00;4971016;28;20436;-62
2023/03/16 09:00:34;;;;;;;5.03;2.70;;;;;;;8.34;nan;101207.53;4983443;28;20394;-62
2023/03/16 09:02:59;;;;;;;3.53;2.30;;;;;;;8.53;nan;101222.91;4986728;28;20112;-63
2023/03/16 09:05:25;;;;;;;7.00;2.60;;;;;;;8.59;nan;101215.81;4976712;28;20522;-64
2023/03/16 09:07:50;;;;;;;6.45;2.22;;;;;;;8.41;nan;101161.03;5004751;28;20057;-64
2023/03/16 09:10:17;;;;;;;5.05;2.30;;;;;;;9.03;nan;101228.97;5003788;28;20038;-64
2023/03/16 09:12:43;;;;;;;3.17;2.20;;;;;;;9.14;nan;101207.72;4991503;28;20049;-63
2023/03/16 09:15:11;;;;;;;2.97;2.20;;;;;;;9.50;nan;101208.72;5005591;28;20534;-63
2023/03/16 09:17:38;;;;;;;3.92;2.40;;;;;;;9.96;nan;101229.53;4989168;28;20049;-63
2023/03/16 09:20:08;;;;;;;3.33;1.98;;;;;;;10.23;nan;101228.06;4994372;28;20389;-65
2023/03/16 09:22:34;;;;;;;5.47;2.33;;;;;;;10.44;nan;101236.28;4983264;28;20030;-61
2023/03/16 09:24:59;;;;;;;3.65;1.70;;;;;;;10.30;nan;101162.09;4977680;28;20110;-64
2023/03/16 09:27:25;;;;;;;3.45;2.00;;;;;;;11.31;nan;101242.66;4988932;28;20053;-62
2023/03/16 09:29:51;;;;;;;6.13;1.63;;;;;;;12.43;nan;101242.66;4982460;28;20118;-61
2023/03/16 09:32:17;;;;;;;3.95;2.03;;;;;;;13.14;nan;101206.72;4985538;28;20049;-63
2023/03/16 09:34:43;;;;;;;6.93;2.20;;;;;;;13.69;nan;101248.66;4969821;28;20039;-62
2023/03/16 09:37:09;;;;;;;3.47;1.95;;;;;;;13.73;nan;101194.72;4971969;28;20039;-62
2023/03/16 09:39:35;;;;;;;4.13;1.83;;;;;;;14.13;nan;101243.41;4982601;28;20065;-63
2023/03/16 09:42:13;;;;;;;5.35;2.30;;;;;;;14.42;nan;101198.06;4991665;28;20088;-64
2023/03/16 09:44:53;;;;;;;3.40;1.90;;;;;;;15.18;nan;101204.38;4993881;28;20060;-64
2023/03/16 09:47:27;;;;;;;3.95;1.65;;;;;;;15.52;nan;101222.31;5009682;28;20058;-62
2023/03/16 09:49:58;;;;;;;4.35;1.92;;;;;;;15.48;nan;101231.31;5010153;28;20347;-57
2023/03/16 09:52:30;;;;;;;6.00;1.80;;;;;;;14.92;nan;101238.28;5009977;28;20143;-59
2023/03/16 09:55:01;;;;;;;4.28;2.13;;;;;;;13.80;nan;101171.53;4994504;28;20030;-51
2023/03/16 09:57:29;;;;;;;2.80;1.67;;;;;;;13.82;nan;101255.22;4988880;28;20553;-50
2023/03/16 10:00:09;;;;;;;5.38;1.90;;;;;;;13.39;nan;101173.16;4993000;28;20046;-52
2023/03/16 10:02:47;;;;;;;4.90;1.70;;;;;;;13.76;nan;101238.72;4991866;28;20541;-50
2023/03/16 10:05:14;;;;;;;5.78;2.08;;;;;;;13.52;nan;101208.78;4992920;28;20184;-52
2023/03/16 10:08:04;;;;;;;3.47;1.60;;;;;;;12.89;nan;101157.41;4993226;28;20034;-52
2023/03/16 10:10:38;;;;;;;4.40;1.83;;;;;;;12.98;nan;101227.53;4992613;28;20093;-53
2023/03/16 10:13:04;;;;;;;3.97;1.85;;;;;;;12.75;nan;101223.09;4992388;28;20265;-53
2023/03/16 10:15:32;;;;;;;4.57;1.95;;;;;;;12.24;nan;101179.97;5007965;28;20034;-54
2023/03/16 10:18:12;;;;;;;2.25;1.85;;;;;;;12.52;nan;101238.00;4991749;28;20034;-55
2023/03/16 10:20:40;;;;;;;4.50;1.50;;;;;;;12.62;nan;101231.47;5008061;28;20034;-54
2023/03/16 10:23:17;;;;;;;3.80;1.63;;;;;;;12.48;nan;101199.41;5008022;28;20069;-55
2023/03/16 10:25:46;;;;;;;3.00;1.70;;;;;;;12.58;nan;101211.38;4991596;28;20038;-53
2023/03/16 10:28:15;;;;;;;9.20;2.13;;;;;;;12.54;nan;101230.88;4992058;28;20049;-55
2023/03/16 10:30:41;;;;;;;2.95;1.33;;;;;;;12.72;nan;101217.91;4991533;28;20573;-57
2023/03/16 10:33:19;;;;;;;7.43;1.95;;;;;;;12.81;nan;101219.34;4992533;28;20120;-55
2023/03/16 10:35:51;;;;;;;3.47;1.67;;;;;;;12.72;nan;101196.78;4991517;28;20339;-56
2023/03/16 10:38:37;;;;;;;3.33;1.50;;;;;;;12.31;nan;101128.72;4992652;28;20062;-52
2023/03/16 10:41:20;;;;;;;3.63;1.50;;;;;;;12.58;nan;101216.66;4992264;28;20070;-53
2023/03/16 10:43:59;;;;;;;6.18;1.40;;;;;;;12.04;nan;101108.53;4992353;28;20030;-54
2023/03/16 10:46:26;;;;;;;6.38;1.98;;;;;;;12.01;nan;101112.16;4991075;28;21554;-53
2023/03/16 10:49:00;;;;;;;3.25;1.65;;;;;;;12.39;nan;101160.97;4991338;28;20041;-51
2023/03/16 10:51:28;;;;;;;2.13;1.30;;;;;;;12.49;nan;101183.50;4992251;28;20053;-55
2023/03/16 10:53:57;;;;;;;3.75;1.48;;;;;;;12.22;nan;101118.47;4991254;28;20390;-52
2023/03/16 10:56:24;;;;;;;4.35;1.92;;;;;;;12.12;nan;101083.59;4992057;28;20047;-51
2023/03/16 10:58:49;;;;;;;3.25;1.65;;;;;;;12.36;nan;101145.25;4992494;28;20193;-54
2023/03/16 11:01:25;;;;;;;5.85;2.17;;;;;;;12.52;nan;101164.91;5006245;28;20446;-55
2023/03/16 11:03:54;;;;;;;6.13;3.42;;;;;;;12.41;nan;101149.44;4972253;28;20046;-51
2023/03/16 11:06:29;;;;;;;3.72;1.55;;;;;;;12.07;nan;101098.75;4972487;28;20372;-53
2023/03/16 11:09:04;;;;;;;2.42;1.50;;;;;;;12.38;nan;101161.88;4972403;28;20061;-50
2023/03/16 11:11:31;;;;;;;6.35;1.75;;;;;;;12.01;nan;101112.16;4972144;28;20081;-54
2023/03/16 11:13:58;;;;;;;4.85;1.85;;;;;;;12.20;nan;101136.97;4971040;28;20447;-53
2023/03/16 11:16:24;;;;;;;3.55;1.67;;;;;;;12.46;nan;101159.84;4971230;28;20589;-55
2023/03/16 11:18:54;;;;;;;3.80;1.70;;;;;;;12.43;nan;101150.25;4980976;28;20106;-55
2023/03/16 11:21:45;;;;;;;2.97;1.50;;;;;;;12.56;nan;101165.66;4990989;28;20129;-52
2023/03/16 11:24:17;;;;;;;4.43;1.90;;;;;;;12.59;nan;101174.34;4991096;28;20045;-53
2023/03/16 11:26:43;;;;;;;5.78;2.00;;;;;;;12.17;nan;101075.53;4990294;28;20128;-55
2023/03/16 11:29:29;;;;;;;4.28;1.70;;;;;;;12.65;nan;101160.91;4989782;28;20441;-51
2023/03/16 11:32:09;;;;;;;4.20;1.85;;;;;;;12.60;nan;101165.50;4991518;28;20042;-55
2023/03/16 11:34:35;;;;;;;5.82;1.67;;;;;;;12.44;nan;101151.09;4991264;28;20034;-54
2023/03/16 11:37:34;;;;;;;4.35;1.48;;;;;;;12.61;nan;101150.53;4990653;28;20382;-56
2023/03/16 11:40:19;;;;;;;4.00;2.30;;;;;;;12.82;nan;101150.59;4991084;28;20034;-52
2023/03/16 11:43:09;;;;;;;4.10;2.15;;;;;;;13.02;nan;101156.94;4991282;28;20026;-54
2023/03/16 11:45:47;;;;;;;3.60;1.65;;;;;;;12.80;nan;101075.84;4991424;28;20030;-56
2023/03/16 11:48:40;;;;;;;6.80;2.03;;;;;;;13.35;nan;101153.03;5006062;28;20100;-54
2023/03/16 11:51:28;;;;;;;4.95;1.38;;;;;;;13.56;nan;101160.13;4991510;28;20037;-54